Time;durP1;ratioP1;P1;durP2;ratioP2;P2;SDS_P1;SDS_P2;PMS_P1;PMS_P2;Temp;Humidity;BMP_temperature;BMP_pressure;BME280_temperature;BME280_humidity;BME280_pressure;Samples;Min_cycle;Max_cycle;Signal;HPM_P1;HPM_P2
2022/07/10 00:01:11;;;;;;;2.40;1.40;;;;;;;13.96;69.19;100133.92;130343;1268;108800;-74
2022/07/10 00:04:16;;;;;;;1.60;1.30;;;;;;;13.98;69.11;100133.20;130187;1268;108760;-73
2022/07/10 00:07:21;;;;;;;2.70;2.00;;;;;;;14.05;69.13;100127.73;130296;1267;108816;-75
2022/07/10 00:10:28;;;;;;;1.70;1.30;;;;;;;14.11;68.89;100121.67;130325;1267;108836;-76
2022/07/10 00:13:33;;;;;;;1.60;1.50;;;;;;;14.12;68.91;100117.73;130217;1268;107051;-75
2022/07/10 00:16:39;;;;;;;2.30;1.50;;;;;;;14.11;68.84;100114.95;130426;1267;108879;-75
2022/07/10 00:19:44;;;;;;;3.40;1.40;;;;;;;14.10;69.09;100117.15;130357;1265;108924;-75
2022/07/10 00:22:51;;;;;;;1.40;1.10;;;;;;;14.07;69.09;100120.63;130391;1267;108661;-75
2022/07/10 00:25:56;;;;;;;1.90;1.50;;;;;;;14.09;69.08;100116.32;130486;1267;108744;-75
2022/07/10 00:29:02;;;;;;;2.00;1.70;;;;;;;14.10;69.34;100107.75;130375;1267;109054;-75
2022/07/10 00:32:08;;;;;;;2.30;1.50;;;;;;;14.12;69.22;100103.41;130428;1267;108795;-74
2022/07/10 00:35:14;;;;;;;2.00;1.50;;;;;;;14.15;69.32;100104.77;130328;1267;107583;-74
2022/07/10 00:38:19;;;;;;;1.80;1.60;;;;;;;14.17;69.27;100102.67;130368;1268;108756;-74
2022/07/10 00:41:24;;;;;;;2.10;1.70;;;;;;;14.18;69.50;100098.75;130308;1267;107702;-74
2022/07/10 00:44:30;;;;;;;1.80;1.60;;;;;;;14.17;69.71;100097.41;130336;1267;108785;-74
2022/07/10 00:47:35;;;;;;;1.70;1.30;;;;;;;14.10;69.87;100095.25;130308;1268;108830;-75
2022/07/10 00:50:41;;;;;;;3.40;1.50;;;;;;;14.13;70.12;100089.23;130335;1268;107442;-74
2022/07/10 00:53:48;;;;;;;2.50;1.60;;;;;;;14.20;69.90;100089.30;130357;1268;109565;-71
2022/07/10 00:56:54;;;;;;;2.40;1.70;;;;;;;14.25;69.87;100083.48;130354;1268;108629;-73
2022/07/10 01:00:01;;;;;;;2.00;1.60;;;;;;;14.30;69.90;100077.20;130347;1268;108624;-74
2022/07/10 01:03:06;;;;;;;2.40;1.80;;;;;;;14.31;70.05;100074.34;130454;1268;108724;-75
2022/07/10 01:06:12;;;;;;;2.00;1.80;;;;;;;14.34;70.10;100075.61;130250;1268;223985;-75
2022/07/10 01:09:18;;;;;;;3.20;1.80;;;;;;;14.34;70.33;100078.91;130387;1268;108658;-75
2022/07/10 01:12:23;;;;;;;2.10;1.40;;;;;;;14.34;70.49;100069.59;130290;1268;108919;-74
2022/07/10 01:15:29;;;;;;;3.20;2.10;;;;;;;14.39;70.43;100067.15;130286;1267;108681;-73
2022/07/10 01:18:34;;;;;;;2.20;1.90;;;;;;;14.47;70.70;100066.30;130310;1267;108717;-74
2022/07/10 01:21:39;;;;;;;3.60;1.80;;;;;;;14.54;70.73;100061.27;130410;1267;109018;-75
2022/07/10 01:24:45;;;;;;;2.60;2.10;;;;;;;14.60;70.77;100063.81;130306;1267;109165;-71
2022/07/10 01:27:50;;;;;;;4.40;2.10;;;;;;;14.65;70.94;100062.23;130289;1268;108723;-71
2022/07/10 01:30:56;;;;;;;3.20;2.00;;;;;;;14.67;70.62;100060.83;130374;1267;108666;-73
2022/07/10 01:34:05;;;;;;;2.20;1.90;;;;;;;14.66;70.83;100057.34;130199;1268;108913;-72
2022/07/10 01:37:11;;;;;;;3.40;1.80;;;;;;;14.69;71.05;100052.71;130245;1268;106927;-75
2022/07/10 01:40:16;;;;;;;2.60;1.80;;;;;;;14.73;70.95;100052.47;130328;1268;108784;-73
2022/07/10 01:43:21;;;;;;;4.20;1.90;;;;;;;14.77;71.10;100052.25;130294;1268;109736;-73
2022/07/10 01:46:27;;;;;;;2.10;1.90;;;;;;;14.83;71.25;100047.24;130435;1268;108693;-75
2022/07/10 01:49:33;;;;;;;2.50;2.10;;;;;;;14.86;71.22;100045.66;130307;1268;108709;-75
2022/07/10 01:52:39;;;;;;;2.80;2.00;;;;;;;14.86;71.09;100041.75;130305;1267;108098;-76
2022/07/10 01:55:44;;;;;;;3.00;2.30;;;;;;;14.84;71.19;100039.15;130362;1267;108797;-75
2022/07/10 01:58:50;;;;;;;2.30;1.80;;;;;;;14.79;71.32;100039.14;130331;1268;108801;-76
2022/07/10 02:01:55;;;;;;;3.40;2.00;;;;;;;14.77;71.30;100035.17;130330;1268;108711;-75
2022/07/10 02:05:00;;;;;;;2.10;1.80;;;;;;;14.77;71.68;100032.95;130363;1268;108910;-75
2022/07/10 02:08:07;;;;;;;3.20;2.20;;;;;;;14.80;72.04;100029.69;130363;1268;108795;-75
2022/07/10 02:11:13;;;;;;;2.50;2.10;;;;;;;14.78;71.95;100035.52;130361;1267;108875;-79
2022/07/10 02:14:18;;;;;;;3.70;2.20;;;;;;;14.78;71.90;100034.77;130366;1267;108588;-75
2022/07/10 02:17:23;;;;;;;2.60;2.30;;;;;;;14.84;72.24;100029.86;130350;1268;108823;-75
2022/07/10 02:20:29;;;;;;;2.10;1.80;;;;;;;14.87;72.09;100024.73;130340;1267;108707;-75
2022/07/10 02:23:34;;;;;;;3.30;2.30;;;;;;;14.89;72.17;100024.67;130303;1268;108741;-74
2022/07/10 02:26:40;;;;;;;3.80;2.30;;;;;;;14.91;72.10;100020.29;130318;1268;108855;-75
2022/07/10 02:29:45;;;;;;;2.30;2.00;;;;;;;14.98;72.08;100018.27;130326;1267;108832;-74
2022/07/10 02:32:50;;;;;;;2.70;2.30;;;;;;;15.04;72.15;100022.05;130362;1268;108868;-77
2022/07/10 02:35:56;;;;;;;3.00;2.00;;;;;;;15.02;72.80;100023.30;130219;1269;108456;-74
2022/07/10 02:39:01;;;;;;;3.30;2.30;;;;;;;14.92;73.24;100023.60;130210;1268;108758;-74
2022/07/10 02:42:07;;;;;;;3.20;2.20;;;;;;;14.83;73.50;100034.23;130192;1268;107472;-75
2022/07/10 02:45:13;;;;;;;3.70;2.40;;;;;;;14.80;73.61;100028.33;130327;1268;108834;-74
2022/07/10 02:48:19;;;;;;;3.20;2.50;;;;;;;14.77;74.75;100028.73;130304;1268;106788;-76
2022/07/10 02:51:24;;;;;;;4.10;2.50;;;;;;;14.71;74.91;100030.51;130365;1268;108768;-74
2022/07/10 02:54:29;;;;;;;4.40;2.70;;;;;;;14.67;74.61;100036.73;130365;1268;108778;-74
2022/07/10 02:57:35;;;;;;;4.40;2.30;;;;;;;14.64;74.81;100036.33;130387;1268;108727;-73
2022/07/10 03:00:41;;;;;;;2.70;2.30;;;;;;;14.64;75.21;100036.99;130235;1271;108183;-74
2022/07/10 03:03:46;;;;;;;3.20;2.10;;;;;;;14.63;75.12;100033.08;130364;1268;109653;-73
2022/07/10 03:06:51;;;;;;;3.70;1.90;;;;;;;14.66;74.95;100030.89;130290;1268;108718;-75
2022/07/10 03:09:57;;;;;;;2.80;1.90;;;;;;;14.65;74.61;100024.86;130391;1268;107802;-75
2022/07/10 03:13:02;;;;;;;3.10;1.90;;;;;;;14.71;74.80;100023.32;130452;1268;107698;-74
2022/07/10 03:16:08;;;;;;;3.20;2.00;;;;;;;14.73;74.56;100021.61;130347;1268;108937;-74
2022/07/10 03:19:13;;;;;;;4.00;2.30;;;;;;;14.80;74.74;100020.60;130295;1268;108929;-74
2022/07/10 03:22:18;;;;;;;3.70;1.90;;;;;;;14.83;74.63;100022.56;130293;1267;108929;-73
2022/07/10 03:25:24;;;;;;;3.10;2.10;;;;;;;14.82;74.97;100024.30;130322;1268;108969;-74
2022/07/10 03:28:30;;;;;;;2.80;2.10;;;;;;;14.88;75.05;100027.80;130379;1267;108869;-73
2022/07/10 03:31:36;;;;;;;3.00;2.20;;;;;;;14.97;74.88;100023.62;130342;1268;107588;-75
2022/07/10 03:34:41;;;;;;;2.90;1.90;;;;;;;15.04;75.03;100023.20;130371;1267;108927;-76
2022/07/10 03:37:46;;;;;;;3.70;2.40;;;;;;;15.08;74.99;100022.23;130397;1268;108641;-77
2022/07/10 03:40:51;;;;;;;3.80;1.60;;;;;;;15.10;74.91;100018.00;130312;1267;108665;-74
2022/07/10 03:43:57;;;;;;;5.00;1.80;;;;;;;15.18;75.02;100017.26;130217;1268;108905;-74
2022/07/10 03:47:02;;;;;;;2.50;1.90;;;;;;;15.24;74.88;100015.36;130378;1267;108812;-75
2022/07/10 03:50:09;;;;;;;4.10;1.80;;;;;;;15.33;74.88;100023.66;130221;1268;108867;-74
2022/07/10 03:53:14;;;;;;;3.10;1.70;;;;;;;15.40;74.99;100022.83;130338;1268;108839;-74
2022/07/10 03:59:39;;;;;;;2.10;1.70;;;;;;;15.49;74.89;100018.17;130390;1267;108733;-74
2022/07/10 04:02:44;;;;;;;3.10;1.60;;;;;;;15.59;75.18;100018.45;130400;1267;108772;-75
2022/07/10 04:05:49;;;;;;;4.50;1.60;;;;;;;15.71;74.97;100014.98;130410;1267;108805;-75
2022/07/10 04:08:55;;;;;;;4.10;1.70;;;;;;;15.86;74.83;100019.42;130229;1268;108670;-75
2022/07/10 04:12:00;;;;;;;3.30;1.80;;;;;;;15.91;74.89;100018.36;130196;1269;108873;-75
2022/07/10 04:15:07;;;;;;;3.40;1.90;;;;;;;15.95;74.78;100018.39;130345;1267;109703;-78
2022/07/10 04:18:12;;;;;;;2.40;1.80;;;;;;;16.01;74.80;100017.83;130327;1267;108891;-76
2022/07/10 04:21:17;;;;;;;2.70;2.00;;;;;;;16.05;74.98;100011.10;130305;1267;108678;-75
2022/07/10 04:24:23;;;;;;;3.20;1.80;;;;;;;16.09;74.86;100007.54;130290;1267;108731;-74
2022/07/10 04:27:28;;;;;;;3.60;1.90;;;;;;;16.14;74.99;100005.54;130402;1267;108822;-75
2022/07/10 04:30:34;;;;;;;2.30;2.10;;;;;;;16.20;75.05;100004.89;130253;1271;109009;-74
2022/07/10 04:33:39;;;;;;;3.40;2.10;;;;;;;16.26;75.01;99997.97;130309;1267;108945;-73
2022/07/10 04:36:44;;;;;;;3.50;2.60;;;;;;;16.29;74.95;99991.52;130330;1267;108748;-73
2022/07/10 04:39:50;;;;;;;2.80;2.30;;;;;;;16.27;75.06;99993.54;130205;1268;109120;-73
2022/07/10 04:42:55;;;;;;;2.60;2.30;;;;;;;16.14;74.99;99993.82;130212;1268;108966;-72
2022/07/10 04:46:00;;;;;;;3.80;2.30;;;;;;;16.01;75.31;99991.23;130380;1267;108879;-75
2022/07/10 04:49:06;;;;;;;3.30;2.20;;;;;;;15.93;75.54;99992.70;130333;1267;109584;-78
2022/07/10 04:52:11;;;;;;;3.00;2.60;;;;;;;15.79;75.87;99988.91;130272;1268;109045;-72
2022/07/10 04:55:16;;;;;;;3.30;2.70;;;;;;;15.73;75.98;99989.14;130360;1267;108872;-72
2022/07/10 04:58:22;;;;;;;4.50;2.70;;;;;;;15.69;75.87;99989.13;130258;1268;109027;-76
2022/07/10 05:01:27;;;;;;;3.40;2.20;;;;;;;15.71;76.08;99985.76;130194;1268;108718;-73
2022/07/10 05:04:32;;;;;;;5.00;2.50;;;;;;;15.71;76.41;99987.87;130279;1268;108871;-72
2022/07/10 05:07:38;;;;;;;4.10;2.60;;;;;;;15.79;76.40;99992.34;130213;1269;108764;-72
2022/07/10 05:10:43;;;;;;;5.30;3.00;;;;;;;15.83;76.17;99990.89;130194;1268;108667;-74
2022/07/10 05:13:48;;;;;;;4.10;3.00;;;;;;;15.87;76.27;99993.28;130311;1268;108891;-74
2022/07/10 05:16:54;;;;;;;3.10;2.70;;;;;;;15.91;76.47;99993.27;130359;1268;109057;-72
2022/07/10 05:19:59;;;;;;;4.70;2.60;;;;;;;15.92;76.58;99992.98;130335;1268;108831;-75
2022/07/10 05:23:04;;;;;;;4.30;2.50;;;;;;;15.90;76.49;99991.44;130347;1268;108756;-74
2022/07/10 05:26:10;;;;;;;3.90;2.50;;;;;;;15.98;76.56;99993.49;130350;1268;107700;-73
2022/07/10 05:29:15;;;;;;;3.40;2.60;;;;;;;16.04;76.62;99994.00;130330;1268;107819;-74
2022/07/10 05:32:21;;;;;;;3.60;2.70;;;;;;;16.10;76.99;99992.71;130295;1268;108822;-72
2022/07/10 05:35:26;;;;;;;3.90;3.10;;;;;;;16.13;76.80;99999.11;130272;1268;108720;-73
2022/07/10 05:38:32;;;;;;;3.80;2.70;;;;;;;16.14;76.94;99995.02;130315;1268;108848;-75
2022/07/10 05:41:37;;;;;;;4.20;2.60;;;;;;;16.19;76.76;99998.63;130376;1268;108949;-72
2022/07/10 05:44:42;;;;;;;3.20;2.60;;;;;;;16.23;76.85;99992.67;130390;1268;108801;-73
2022/07/10 05:47:48;;;;;;;3.70;3.30;;;;;;;16.24;77.03;99989.50;130336;1268;108955;-73
2022/07/10 05:50:53;;;;;;;5.40;3.20;;;;;;;16.24;77.05;99990.70;130316;1268;108718;-73
2022/07/10 05:53:59;;;;;;;4.40;3.20;;;;;;;16.31;76.96;99992.78;130333;1269;108751;-78
2022/07/10 05:57:05;;;;;;;4.90;3.20;;;;;;;16.45;77.15;99990.48;130306;1268;107847;-77
2022/07/10 06:00:12;;;;;;;4.80;2.90;;;;;;;16.52;76.98;99989.64;130248;1268;108750;-76
2022/07/10 06:03:17;;;;;;;4.50;2.80;;;;;;;16.55;77.18;99989.11;130307;1268;108699;-75
2022/07/10 06:06:23;;;;;;;6.20;3.90;;;;;;;16.67;77.13;99984.25;130340;1268;108635;-75
2022/07/10 06:09:28;;;;;;;3.50;2.70;;;;;;;16.84;76.75;99981.61;130377;1268;108575;-78
2022/07/10 06:12:34;;;;;;;3.60;3.00;;;;;;;16.95;76.31;99986.23;130207;1269;109066;-75
2022/07/10 06:15:39;;;;;;;5.90;2.80;;;;;;;17.02;76.44;99988.95;130356;1268;108504;-76
2022/07/10 06:18:45;;;;;;;3.90;2.60;;;;;;;17.11;76.25;99985.42;130283;1268;108792;-77
2022/07/10 06:22:30;;;;;;;3.10;2.50;;;;;;;17.26;75.91;99985.42;130353;1268;108783;-76
2022/07/10 06:25:16;;;;;;;4.40;2.40;;;;;;;17.51;75.86;99986.76;130362;1268;107740;-73
2022/07/10 06:28:22;;;;;;;4.00;2.30;;;;;;;17.67;75.09;99987.65;130522;1267;108847;-77
2022/07/10 06:31:28;;;;;;;4.40;2.40;;;;;;;17.68;74.45;99986.61;130335;1270;108842;-79
2022/07/10 06:34:34;;;;;;;5.10;2.40;;;;;;;17.58;74.09;99980.26;130396;1268;108669;-78
2022/07/10 06:37:39;;;;;;;4.40;2.70;;;;;;;17.55;74.91;99977.42;130369;1268;108724;-75
2022/07/10 06:40:46;;;;;;;3.40;2.50;;;;;;;17.68;74.85;99978.19;130224;1269;108822;-76
2022/07/10 06:43:51;;;;;;;3.60;2.30;;;;;;;17.76;74.10;99974.83;130401;1268;107377;-75
2022/07/10 06:50:21;;;;;;;4.70;2.50;;;;;;;17.94;74.78;99969.76;130264;1268;108602;-77
2022/07/10 06:53:27;;;;;;;3.80;2.20;;;;;;;18.15;74.56;99965.79;130239;1268;108815;-78
2022/07/10 06:56:32;;;;;;;4.00;2.30;;;;;;;18.06;73.78;99964.67;130363;1267;108812;-77
2022/07/10 06:59:37;;;;;;;3.60;2.30;;;;;;;18.06;74.00;99961.27;130379;1268;108918;-77
2022/07/10 07:02:43;;;;;;;3.80;2.60;;;;;;;18.23;74.31;99955.84;130344;1268;108901;-79
2022/07/10 07:05:49;;;;;;;4.80;1.80;;;;;;;18.52;73.75;99955.40;130340;1268;109725;-79
2022/07/10 07:08:54;;;;;;;3.00;2.00;;;;;;;18.77;73.69;99947.84;130337;1268;108821;-76
2022/07/10 07:11:59;;;;;;;4.40;2.00;;;;;;;18.96;72.47;99954.05;131034;1268;108755;-79
2022/07/10 07:15:06;;;;;;;3.70;1.70;;;;;;;19.03;71.68;99952.39;130506;1267;108487;-79
2022/07/10 07:18:15;;;;;;;5.40;1.80;;;;;;;19.10;71.18;99945.21;130464;1268;108762;-79
2022/07/10 07:24:44;;;;;;;5.00;1.70;;;;;;;18.23;69.81;99956.97;130524;1268;108779;-77
2022/07/10 07:27:49;;;;;;;4.60;1.60;;;;;;;17.96;68.95;99963.15;130429;1268;108695;-78
2022/07/10 07:30:55;;;;;;;3.60;1.80;;;;;;;17.78;69.53;99954.35;130362;1268;108676;-76
2022/07/10 07:34:00;;;;;;;4.00;1.30;;;;;;;18.05;70.89;99951.92;130517;1268;109831;-78
2022/07/10 07:37:07;;;;;;;3.00;1.20;;;;;;;18.60;70.91;99947.69;130364;1268;108894;-77
2022/07/10 07:40:19;;;;;;;3.20;1.30;;;;;;;18.98;68.79;99950.30;130307;1268;108876;-76
2022/07/10 07:43:24;;;;;;;2.60;1.30;;;;;;;18.78;66.31;99959.27;130362;1268;108864;-77
2022/07/10 07:46:29;;;;;;;4.90;1.30;;;;;;;18.42;66.88;99961.84;130310;1268;108792;-79
2022/07/10 07:49:35;;;;;;;4.40;1.30;;;;;;;18.16;66.67;99966.83;130286;1269;107830;-76
2022/07/10 07:52:40;;;;;;;4.30;1.40;;;;;;;18.01;66.20;99972.73;130296;1268;108988;-77
2022/07/10 07:55:46;;;;;;;4.80;1.40;;;;;;;17.93;67.31;99972.29;130347;1268;108652;-79
2022/07/10 07:58:51;;;;;;;3.30;1.30;;;;;;;18.05;67.22;99971.86;130427;1268;108636;-79
2022/07/10 08:01:56;;;;;;;3.60;1.30;;;;;;;17.97;65.43;99972.73;130394;1268;108756;-79
2022/07/10 08:05:02;;;;;;;5.20;1.50;;;;;;;17.89;66.41;99976.32;130388;1268;108734;-80
2022/07/10 08:08:10;;;;;;;5.20;1.30;;;;;;;17.92;65.84;99970.83;130356;1268;109668;-82
2022/07/10 08:11:15;;;;;;;3.10;1.20;;;;;;;18.00;64.66;99969.54;130434;1268;108775;-77
2022/07/10 08:14:20;;;;;;;5.40;1.20;;;;;;;18.13;65.48;99961.55;130308;1268;109891;-81
2022/07/10 08:17:26;;;;;;;3.60;1.20;;;;;;;18.30;65.53;99959.75;130470;1268;108734;-76
2022/07/10 08:20:32;;;;;;;3.50;1.20;;;;;;;18.20;64.06;99966.52;130329;1268;108860;-78
2022/07/10 08:23:37;;;;;;;5.20;1.00;;;;;;;17.97;63.35;99972.83;130228;1268;108745;-80
2022/07/10 08:26:43;;;;;;;2.80;1.00;;;;;;;17.86;63.35;99974.02;130312;1268;108753;-80
2022/07/10 08:29:48;;;;;;;4.90;1.40;;;;;;;17.82;62.07;99978.15;130303;1268;107269;-80
2022/07/10 08:32:54;;;;;;;3.40;1.10;;;;;;;17.99;63.02;99976.44;130310;1268;108691;-78
2022/07/10 08:36:00;;;;;;;4.20;1.20;;;;;;;18.22;62.38;99976.66;130248;1268;107509;-78
2022/07/10 08:39:05;;;;;;;3.80;1.10;;;;;;;18.09;61.29;99983.15;130297;1268;109686;-78
2022/07/10 08:42:12;;;;;;;4.80;1.20;;;;;;;17.78;62.47;99982.27;130339;1268;108810;-80
2022/07/10 08:45:18;;;;;;;4.30;1.10;;;;;;;17.59;62.85;99987.45;130341;1268;108844;-78
2022/07/10 08:48:25;;;;;;;4.20;0.80;;;;;;;17.52;62.91;99986.30;130308;1268;108750;-79
2022/07/10 08:51:41;;;;;;;3.20;0.80;;;;;;;17.61;62.15;99986.52;130379;1268;109084;-78
2022/07/10 08:54:46;;;;;;;3.10;0.80;;;;;;;17.81;62.56;99995.48;130387;1268;108775;-77
2022/07/10 08:57:55;;;;;;;2.80;0.80;;;;;;;17.92;63.31;99996.21;130375;1267;108830;-76
2022/07/10 09:01:35;;;;;;;2.50;0.90;;;;;;;18.13;63.47;99995.04;131257;1267;108881;-80
2022/07/10 09:05:51;;;;;;;2.20;0.70;;;;;;;18.41;63.39;99990.63;130592;1268;107816;-81
2022/07/10 09:10:12;;;;;;;4.20;1.00;;;;;;;18.78;63.27;99986.30;131034;1268;106743;-78
2022/07/10 09:13:17;;;;;;;3.20;0.80;;;;;;;18.91;62.55;99985.31;130364;1268;109090;-80
2022/07/10 09:16:53;;;;;;;2.20;0.70;;;;;;;18.96;62.69;99979.72;130820;1268;108786;-82
2022/07/10 09:24:47;;;;;;;3.00;0.70;;;;;;;19.12;60.83;99975.27;130562;1268;109389;-81
2022/07/10 09:28:05;;;;;;;2.60;0.80;;;;;;;19.06;62.14;99974.30;130175;1268;109480;-77
2022/07/10 09:31:11;;;;;;;2.10;0.80;;;;;;;18.91;60.80;99974.13;130619;1268;108985;-76
2022/07/10 09:34:36;;;;;;;2.30;0.80;;;;;;;18.55;61.37;99969.77;130197;1268;108657;-79
2022/07/10 09:37:44;;;;;;;2.10;0.60;;;;;;;18.37;60.63;99970.15;130410;1268;109141;-79
2022/07/10 09:40:53;;;;;;;3.20;0.70;;;;;;;18.16;60.03;99972.48;130265;1268;110662;-79
2022/07/10 09:44:01;;;;;;;1.00;0.50;;;;;;;18.01;59.99;99970.79;130070;1268;108967;-78
2022/07/10 09:47:22;;;;;;;1.90;0.70;;;;;;;18.00;59.05;99975.48;130353;1268;108847;-78
2022/07/10 09:50:30;;;;;;;1.80;0.60;;;;;;;17.97;58.92;99976.61;130159;1268;108713;-78
2022/07/10 09:53:39;;;;;;;2.20;0.60;;;;;;;18.17;58.79;99978.42;130179;1268;108799;-78
2022/07/10 09:56:46;;;;;;;1.80;0.60;;;;;;;18.25;58.32;99971.21;130063;1268;108756;-79
2022/07/10 09:59:53;;;;;;;1.60;0.60;;;;;;;18.28;57.90;99970.25;130093;1268;108671;-79
2022/07/10 10:03:01;;;;;;;1.50;0.70;;;;;;;18.51;57.08;99973.48;130127;1268;108895;-79
2022/07/10 10:06:15;;;;;;;2.50;0.80;;;;;;;18.61;55.08;99977.50;130080;1268;107696;-80
2022/07/10 10:09:25;;;;;;;2.00;0.70;;;;;;;18.65;55.98;99971.91;130095;1268;108655;-79
2022/07/10 10:12:37;;;;;;;2.10;0.80;;;;;;;18.90;57.22;99972.67;130380;1268;108585;-79
2022/07/10 10:15:47;;;;;;;3.10;0.90;;;;;;;19.08;55.27;99971.46;130284;1268;108331;-79
2022/07/10 10:22:18;;;;;;;3.20;0.90;;;;;;;19.33;56.64;99975.16;130307;1268;108852;-79
2022/07/10 10:25:27;;;;;;;5.10;0.70;;;;;;;19.55;54.66;99971.73;130254;1268;108761;-79
2022/07/10 10:28:36;;;;;;;3.60;0.90;;;;;;;19.63;54.13;99970.21;130412;1268;108938;-84
2022/07/10 10:31:42;;;;;;;3.50;0.90;;;;;;;19.53;53.30;99970.48;131343;1268;108847;-83
2022/07/10 10:34:55;;;;;;;2.00;0.70;;;;;;;19.57;53.75;99967.46;130548;1268;108945;-83
2022/07/10 10:38:01;;;;;;;2.70;0.80;;;;;;;19.77;53.39;99965.30;130666;1268;108672;-76
2022/07/10 10:41:26;;;;;;;2.90;0.60;;;;;;;19.92;53.53;99967.72;130285;1268;108739;-78
2022/07/10 10:44:35;;;;;;;2.00;0.80;;;;;;;20.20;54.96;99963.42;130644;1268;108789;-77
2022/07/10 10:48:00;;;;;;;1.60;0.70;;;;;;;20.47;53.06;99957.17;130474;1268;108807;-79
2022/07/10 10:51:06;;;;;;;2.60;0.80;;;;;;;20.65;53.86;99953.52;130382;1267;108685;-79
2022/07/10 10:54:11;;;;;;;2.40;0.90;;;;;;;20.52;51.37;99956.79;130504;1268;108849;-79
2022/07/10 10:57:18;;;;;;;2.30;0.70;;;;;;;20.42;53.03;99955.06;130352;1268;108830;-76
2022/07/10 11:00:40;;;;;;;3.00;0.80;;;;;;;20.20;51.27;99959.25;130680;1268;108589;-75
2022/07/10 11:04:20;;;;;;;2.20;0.70;;;;;;;19.76;52.08;99954.52;130380;1267;108729;-76
2022/07/10 11:07:56;;;;;;;2.90;0.80;;;;;;;19.59;52.19;99958.13;130574;1268;108896;-76
2022/07/10 11:11:01;;;;;;;3.00;1.00;;;;;;;19.78;52.86;99946.20;130392;1268;108937;-77
2022/07/10 11:14:07;;;;;;;3.50;0.90;;;;;;;20.01;53.89;99949.86;130454;1267;108912;-78
2022/07/10 11:17:13;;;;;;;1.70;0.80;;;;;;;19.87;52.40;99957.88;130577;1267;108868;-74
2022/07/10 11:20:19;;;;;;;2.30;0.80;;;;;;;19.34;54.19;99973.17;130328;1267;107674;-77
2022/07/10 11:23:52;;;;;;;4.50;1.00;;;;;;;18.39;59.04;99986.42;130514;1268;108545;-82
2022/07/10 11:27:07;;;;;;;4.00;0.90;;;;;;;17.50;60.61;99992.69;130350;1268;108818;-75
2022/07/10 11:30:12;;;;;;;2.30;0.60;;;;;;;17.22;59.62;99979.40;130517;1268;107417;-76
2022/07/10 11:33:20;;;;;;;2.70;0.70;;;;;;;17.38;60.34;99974.25;130421;1267;108644;-77
2022/07/10 11:36:28;;;;;;;1.30;0.60;;;;;;;17.63;60.29;99969.92;130432;1267;108775;-76
2022/07/10 11:39:34;;;;;;;1.60;0.70;;;;;;;17.80;60.55;99961.43;130436;1268;108633;-75
2022/07/10 11:42:57;;;;;;;2.00;0.60;;;;;;;18.02;60.26;99957.29;130333;1268;108707;-75
2022/07/10 11:46:02;;;;;;;2.40;0.70;;;;;;;18.43;60.97;99955.84;130525;1267;108829;-75
2022/07/10 11:49:08;;;;;;;1.80;0.70;;;;;;;18.91;61.27;99958.72;130478;1267;108942;-76
2022/07/10 11:52:14;;;;;;;2.70;0.80;;;;;;;19.03;60.32;99972.45;130693;1268;108882;-75
2022/07/10 11:55:22;;;;;;;1.60;0.60;;;;;;;18.32;59.01;99979.45;130538;1267;108880;-75
2022/07/10 11:58:27;;;;;;;2.30;0.70;;;;;;;17.78;59.33;99984.64;130406;1268;108792;-79
2022/07/10 12:01:35;;;;;;;1.50;0.70;;;;;;;17.46;59.03;99986.38;130614;1267;108571;-74
2022/07/10 12:04:40;;;;;;;1.40;0.70;;;;;;;17.32;59.54;99991.12;130409;1268;108735;-73
2022/07/10 12:07:46;;;;;;;1.60;0.60;;;;;;;17.35;59.59;99986.89;130675;1268;108833;-74
2022/07/10 12:10:52;;;;;;;1.20;0.70;;;;;;;17.26;58.88;99991.30;130457;1268;108853;-75
2022/07/10 12:14:12;;;;;;;1.00;0.50;;;;;;;17.23;59.34;99986.32;130472;1268;107528;-75
2022/07/10 12:17:17;;;;;;;2.00;0.70;;;;;;;17.31;59.48;99982.23;130393;1268;108962;-74
2022/07/10 12:20:23;;;;;;;2.40;0.80;;;;;;;17.37;59.16;99979.80;130437;1268;107706;-77
2022/07/10 12:23:29;;;;;;;1.20;0.70;;;;;;;17.43;58.92;99977.07;130506;1268;108857;-76
2022/07/10 12:26:40;;;;;;;2.60;0.90;;;;;;;17.57;59.39;99974.06;130420;1267;108759;-75
2022/07/10 12:30:00;;;;;;;3.30;0.80;;;;;;;17.91;59.33;99978.71;130532;1268;107682;-75
2022/07/10 12:33:10;;;;;;;1.30;0.70;;;;;;;18.14;59.19;99977.79;130279;1268;107710;-75
2022/07/10 12:36:16;;;;;;;2.90;1.10;;;;;;;18.29;58.16;99977.69;130512;1268;108763;-75
2022/07/10 12:39:23;;;;;;;3.40;0.80;;;;;;;18.21;56.61;99976.83;130270;1268;108868;-72
2022/07/10 12:42:30;;;;;;;3.30;1.20;;;;;;;18.06;56.27;99979.05;130242;1268;108943;-74
2022/07/10 12:45:35;;;;;;;3.70;1.00;;;;;;;17.99;57.10;99977.67;130460;1268;108132;-73
2022/07/10 12:48:41;;;;;;;2.90;0.90;;;;;;;18.09;57.54;99977.89;130303;1268;108789;-73
2022/07/10 12:51:48;;;;;;;1.80;0.80;;;;;;;18.10;57.01;99980.17;130369;1268;108769;-75
2022/07/10 12:58:28;;;;;;;1.70;0.90;;;;;;;18.35;57.72;99974.23;126796;1303;636203;-73
2022/07/10 13:01:44;;;;;;;1.40;0.70;;;;;;;18.43;58.18;99970.18;129373;1281;108937;-74
2022/07/10 13:04:57;;;;;;;2.20;0.70;;;;;;;18.66;58.38;99966.70;129271;1280;107726;-75
2022/07/10 13:08:15;;;;;;;2.10;1.00;;;;;;;18.95;58.32;99963.79;129312;1280;108648;-79
2022/07/10 13:11:21;;;;;;;1.50;0.70;;;;;;;19.26;57.42;99962.63;129061;1277;256212;-77
2022/07/10 13:14:26;;;;;;;1.80;0.90;;;;;;;19.47;56.43;99958.63;129694;1277;108661;-77
2022/07/10 13:17:32;;;;;;;1.00;0.50;;;;;;;19.47;53.40;99965.13;129611;1277;108954;-76
2022/07/10 13:20:37;;;;;;;1.20;0.60;;;;;;;19.24;52.53;99966.06;129645;1277;108960;-77
2022/07/10 13:23:43;;;;;;;0.80;0.50;;;;;;;19.21;52.76;99960.45;129484;1277;108874;-75
2022/07/10 13:26:49;;;;;;;2.20;0.40;;;;;;;19.01;52.67;99967.23;129422;1277;109466;-74
2022/07/10 13:29:54;;;;;;;1.40;0.50;;;;;;;18.82;53.36;99971.70;129796;1274;108656;-74
2022/07/10 13:33:00;;;;;;;3.00;0.80;;;;;;;18.66;53.99;99972.65;129793;1274;108681;-74
2022/07/10 13:36:07;;;;;;;2.20;0.50;;;;;;;18.69;54.96;99964.11;129567;1276;108760;-74
2022/07/10 13:39:12;;;;;;;0.90;0.50;;;;;;;18.84;54.05;99958.59;129715;1276;108742;-79
2022/07/10 13:42:18;;;;;;;1.80;0.70;;;;;;;18.99;53.73;99966.61;129565;1276;108648;-78
2022/07/10 13:45:24;;;;;;;2.10;0.60;;;;;;;19.06;53.58;99958.50;129551;1277;107863;-81
2022/07/10 13:48:30;;;;;;;1.90;0.60;;;;;;;19.11;52.74;99958.44;129844;1276;107243;-79
2022/07/10 13:51:36;;;;;;;3.10;1.30;;;;;;;19.06;53.05;99955.70;129536;1277;108612;-79
2022/07/10 13:54:41;;;;;;;1.90;1.10;;;;;;;19.09;53.83;99957.98;129595;1276;108773;-78
2022/07/10 13:57:46;;;;;;;1.90;0.80;;;;;;;19.16;52.59;99956.16;129551;1275;109343;-74
2022/07/10 14:00:52;;;;;;;1.80;0.90;;;;;;;19.26;53.76;99953.39;129562;1277;108890;-82
2022/07/10 14:03:58;;;;;;;1.40;0.80;;;;;;;19.30;51.80;99965.35;129523;1276;108694;-79
2022/07/10 14:07:03;;;;;;;2.90;1.10;;;;;;;19.08;51.80;99967.46;129813;1277;108812;-85
2022/07/10 14:10:10;;;;;;;1.70;0.80;;;;;;;18.99;52.22;99967.85;129801;1277;109155;-79
2022/07/10 14:13:15;;;;;;;1.40;0.90;;;;;;;19.02;52.71;99966.77;129516;1277;108705;-82
2022/07/10 14:16:21;;;;;;;3.60;0.70;;;;;;;18.96;52.78;99967.08;129690;1277;108623;-78
2022/07/10 14:19:26;;;;;;;1.80;0.80;;;;;;;18.85;53.26;99969.58;129469;1276;108659;-83
2022/07/10 14:22:32;;;;;;;1.30;0.80;;;;;;;18.82;53.75;99972.86;129528;1277;107452;-79
2022/07/10 14:25:37;;;;;;;1.90;0.80;;;;;;;18.77;53.97;99975.77;129493;1276;108713;-83
2022/07/10 14:28:42;;;;;;;2.00;1.00;;;;;;;18.73;54.57;99981.36;129546;1275;109029;-86
2022/07/10 14:31:48;;;;;;;2.80;1.00;;;;;;;18.67;54.96;99991.02;129701;1276;107739;-77
2022/07/10 14:34:54;;;;;;;2.30;1.10;;;;;;;18.51;55.28;99994.85;129612;1276;108907;-78
2022/07/10 14:37:59;;;;;;;3.70;1.20;;;;;;;18.36;56.71;100010.92;129598;1277;108766;-83
2022/07/10 14:41:05;;;;;;;2.60;1.10;;;;;;;18.27;57.99;100020.45;129539;1277;108745;-76